createdAt,value
2022-12-23T00:01:39.245Z,18.10
2022-12-23T00:04:08.584Z,24.88
2022-12-23T00:06:37.032Z,26.63
2022-12-23T00:09:05.466Z,17.40
2022-12-23T00:11:33.991Z,22.42
2022-12-23T00:14:22.161Z,30.65
2022-12-23T00:16:51.169Z,24.65
2022-12-23T00:19:19.846Z,21.90
2022-12-23T00:21:48.611Z,25.70
2022-12-23T00:24:17.092Z,28.60
2022-12-23T00:26:45.477Z,17.20
2022-12-23T00:29:13.878Z,25.83
2022-12-23T00:31:42.412Z,23.25
2022-12-23T00:34:12.304Z,18.90
2022-12-23T00:36:40.821Z,31.98
2022-12-23T00:39:31.024Z,22.27
2022-12-23T00:42:17.844Z,32.70
2022-12-23T00:44:46.198Z,20.75
2022-12-23T00:47:34.541Z,24.88
2022-12-23T00:50:02.976Z,19.90
2022-12-23T00:52:31.586Z,15.48
2022-12-23T00:55:00.034Z,25.33
2022-12-23T00:57:28.439Z,22.38
2022-12-23T00:59:56.822Z,36.47
2022-12-23T01:02:44.041Z,35.60
2022-12-23T01:05:41.874Z,19.38
2022-12-23T01:08:11.941Z,28.92
2022-12-23T01:10:40.839Z,29.20
2022-12-23T01:13:09.261Z,22.75
2022-12-23T01:15:37.634Z,20.25
2022-12-23T01:18:06.071Z,23.77
2022-12-23T01:20:34.635Z,38.42
2022-12-23T01:23:03.015Z,21.73
2022-12-23T01:25:31.943Z,34.40
2022-12-23T01:28:00.417Z,26.95
2022-12-23T01:30:29.025Z,45.67
2022-12-23T01:32:57.437Z,29.90
2022-12-23T01:35:25.830Z,24.98
2022-12-23T01:37:54.391Z,22.40
2022-12-23T01:40:22.797Z,21.73
2022-12-23T01:42:51.231Z,22.70
2022-12-23T01:45:30.099Z,22.33
2022-12-23T01:48:09.894Z,24.58
2022-12-23T01:50:44.660Z,24.85
2022-12-23T01:53:19.232Z,28.52
2022-12-23T01:55:59.296Z,25.42
2022-12-23T01:58:34.166Z,27.33
2022-12-23T02:01:21.686Z,31.70
2022-12-23T02:03:54.600Z,33.65
2022-12-23T02:06:45.401Z,36.08
2022-12-23T02:09:19.048Z,33.10
2022-12-23T02:12:05.791Z,30.58
2022-12-23T02:15:15.060Z,23.80
2022-12-23T02:17:55.450Z,29.95
2022-12-23T02:20:51.120Z,24.38
2022-12-23T02:23:44.357Z,23.50
2022-12-23T02:26:15.739Z,35.70
2022-12-23T02:29:19.638Z,26.52
2022-12-23T02:32:08.686Z,30.65
2022-12-23T02:34:55.986Z,36.08
2022-12-23T02:37:37.542Z,25.48
2022-12-23T02:40:35.321Z,24.52
2022-12-23T02:43:16.040Z,27.15
2022-12-23T02:46:02.648Z,22.75
2022-12-23T02:48:40.711Z,44.55
2022-12-23T02:51:11.716Z,21.92
2022-12-23T02:53:49.818Z,22.27
2022-12-23T02:56:21.488Z,24.95
2022-12-23T02:59:00.027Z,29.17
2022-12-23T03:01:31.778Z,36.45
2022-12-23T03:04:00.507Z,23.92
2022-12-23T03:06:34.883Z,25.05
2022-12-23T03:09:03.548Z,25.42
2022-12-23T03:12:16.279Z,25.23
2022-12-23T03:14:51.069Z,25.98
2022-12-23T03:17:54.709Z,23.50
2022-12-23T03:20:41.453Z,24.45
2022-12-23T03:23:17.835Z,36.92
2022-12-23T03:26:02.957Z,21.20
2022-12-23T03:28:44.726Z,21.45
2022-12-23T03:31:18.914Z,21.77
2022-12-23T03:33:53.774Z,22.50
2022-12-23T03:36:32.108Z,21.83
2022-12-23T03:39:04.447Z,22.15
2022-12-23T03:41:42.356Z,29.05
2022-12-23T03:44:15.703Z,25.05
2022-12-23T03:46:52.701Z,20.02
2022-12-23T03:49:30.829Z,23.42
2022-12-23T03:52:21.696Z,25.30
2022-12-23T03:54:54.163Z,19.40
2022-12-23T03:59:54.994Z,22.52
2022-12-23T04:02:47.196Z,33.10
2022-12-23T04:05:25.089Z,22.15
2022-12-23T04:08:16.106Z,25.67
2022-12-23T04:10:45.370Z,23.00
2022-12-23T04:13:13.817Z,27.30
2022-12-23T04:15:42.790Z,32.63
2022-12-23T04:18:11.577Z,30.45
2022-12-23T04:20:40.006Z,26.27
2022-12-23T04:23:08.419Z,26.70
2022-12-23T04:25:37.767Z,21.30
2022-12-23T04:28:06.329Z,25.08
2022-12-23T04:30:35.127Z,23.02
2022-12-23T04:33:03.852Z,20.48
2022-12-23T04:35:32.229Z,32.63
2022-12-23T04:38:00.649Z,23.52
2022-12-23T04:40:29.164Z,22.05
2022-12-23T04:42:57.581Z,23.67
2022-12-23T04:45:26.027Z,24.52
2022-12-23T04:47:55.273Z,25.52
2022-12-23T04:50:23.845Z,20.05
2022-12-23T04:52:52.244Z,24.85
2022-12-23T04:55:20.632Z,19.33
2022-12-23T04:57:49.084Z,24.70
2022-12-23T05:00:17.962Z,25.05
2022-12-23T05:02:46.519Z,25.67
2022-12-23T05:05:15.012Z,20.77
2022-12-23T05:07:43.506Z,24.27
2022-12-23T05:10:11.941Z,28.90
2022-12-23T05:12:40.360Z,18.55
2022-12-23T05:15:09.129Z,19.42
2022-12-23T05:17:37.670Z,23.15
2022-12-23T05:20:06.927Z,32.25
2022-12-23T05:22:35.411Z,28.05
2022-12-23T05:25:04.051Z,26.88
2022-12-23T05:27:32.433Z,28.58
2022-12-23T05:30:00.769Z,22.05
2022-12-23T05:32:29.157Z,22.98
2022-12-23T05:34:57.599Z,42.83
2022-12-23T05:37:25.953Z,31.55
2022-12-23T05:39:54.381Z,31.40
2022-12-23T05:42:22.807Z,31.75
2022-12-23T05:44:51.149Z,27.27
2022-12-23T05:47:19.612Z,37.95
2022-12-23T05:49:48.018Z,32.10
2022-12-23T05:52:16.379Z,25.38
2022-12-23T05:54:44.842Z,25.35
2022-12-23T05:57:13.221Z,25.30
2022-12-23T05:59:41.678Z,27.90
2022-12-23T06:02:10.344Z,21.95
2022-12-23T06:04:38.850Z,33.90
2022-12-23T06:07:07.587Z,30.98
2022-12-23T06:09:36.049Z,28.33
2022-12-23T06:12:04.685Z,33.60
2022-12-23T06:14:33.116Z,42.60
2022-12-23T06:17:01.648Z,31.42
2022-12-23T06:19:30.031Z,39.25
2022-12-23T06:21:58.444Z,31.55
2022-12-23T06:24:26.836Z,31.30
2022-12-23T06:26:57.544Z,29.38
2022-12-23T06:29:26.217Z,31.08
2022-12-23T06:31:54.713Z,32.45
2022-12-23T06:34:23.224Z,31.77
2022-12-23T06:36:51.745Z,35.67
2022-12-23T06:39:20.374Z,35.25
2022-12-23T06:41:48.959Z,33.67
2022-12-23T06:44:17.674Z,28.67
2022-12-23T06:46:46.383Z,37.88
2022-12-23T06:49:14.851Z,30.13
2022-12-23T06:51:43.202Z,37.97
2022-12-23T06:54:12.036Z,45.72
2022-12-23T06:56:40.594Z,35.38
2022-12-23T06:59:08.946Z,29.75
2022-12-23T07:01:37.426Z,29.30
2022-12-23T07:04:06.489Z,34.17
2022-12-23T07:06:35.057Z,31.85
2022-12-23T07:09:03.455Z,56.85
2022-12-23T07:11:32.215Z,39.00
2022-12-23T07:14:00.675Z,36.83
2022-12-23T07:16:29.228Z,36.47
2022-12-23T07:18:57.740Z,32.33
2022-12-23T07:21:29.397Z,46.85
2022-12-23T07:23:58.099Z,36.67
2022-12-23T07:26:26.685Z,39.72
2022-12-23T07:28:55.076Z,48.85
2022-12-23T07:31:23.862Z,36.28
2022-12-23T07:33:52.472Z,35.10
2022-12-23T07:36:20.956Z,44.45
2022-12-23T07:38:51.507Z,45.47
2022-12-23T07:41:19.913Z,42.67
2022-12-23T07:43:48.348Z,41.85
2022-12-23T07:46:16.735Z,38.80
2022-12-23T07:48:45.285Z,38.53
2022-12-23T07:51:13.761Z,44.92
2022-12-23T07:53:42.250Z,33.88
2022-12-23T07:56:10.633Z,46.10
2022-12-23T07:58:39.157Z,31.58
2022-12-23T08:01:08.170Z,30.00
2022-12-23T08:03:37.002Z,32.22
2022-12-23T08:06:14.195Z,43.95
2022-12-23T08:08:44.844Z,44.25
2022-12-23T08:11:14.839Z,32.45
2022-12-23T08:13:45.217Z,40.78
2022-12-23T08:16:13.880Z,33.88
2022-12-23T08:18:42.678Z,25.02
2022-12-23T08:21:13.139Z,23.75
2022-12-23T08:23:43.417Z,30.80
2022-12-23T08:26:15.251Z,33.97
2022-12-23T08:28:45.128Z,40.63
2022-12-23T08:31:22.698Z,24.63
2022-12-23T08:33:54.797Z,28.10
2022-12-23T08:36:26.032Z,27.88
2022-12-23T08:38:57.055Z,24.93
2022-12-23T08:41:28.132Z,22.60
2022-12-23T08:43:56.900Z,31.05
2022-12-23T08:46:25.984Z,20.25
2022-12-23T08:48:54.603Z,26.95
2022-12-23T08:51:24.720Z,20.83
2022-12-23T08:54:00.855Z,29.92
2022-12-23T08:56:33.323Z,26.98
2022-12-23T08:59:02.959Z,30.90
2022-12-23T09:01:33.910Z,18.85
2022-12-23T09:04:04.698Z,21.02
2022-12-23T09:06:40.681Z,30.60
2022-12-23T09:09:11.528Z,31.80
2022-12-23T09:11:39.957Z,17.45
2022-12-23T09:14:10.156Z,19.13
2022-12-23T09:16:39.399Z,19.77
2022-12-23T09:19:08.096Z,14.40
2022-12-23T09:21:36.974Z,28.20
2022-12-23T09:24:05.948Z,21.30
2022-12-23T09:26:34.581Z,17.40
2022-12-23T09:29:03.094Z,20.33
2022-12-23T09:31:36.777Z,27.45
2022-12-23T09:34:06.282Z,32.10
2022-12-23T09:36:34.887Z,17.52
2022-12-23T09:39:04.148Z,24.48
2022-12-23T09:41:48.543Z,32.63
2022-12-23T09:45:04.869Z,15.88
2022-12-23T09:47:34.385Z,17.63
2022-12-23T09:50:15.004Z,14.50
2022-12-23T09:52:54.354Z,33.35
2022-12-23T09:55:28.503Z,22.20
2022-12-23T09:58:14.415Z,16.15
2022-12-23T10:01:00.485Z,31.33
2022-12-23T10:04:00.146Z,20.38
2022-12-23T10:06:30.768Z,15.40
2022-12-23T10:09:02.606Z,15.00
2022-12-23T10:11:43.797Z,20.77
2022-12-23T10:14:18.764Z,12.80
2022-12-23T10:16:55.349Z,13.50
2022-12-23T10:19:32.024Z,13.10
2022-12-23T10:22:11.690Z,24.92
2022-12-23T10:24:43.302Z,15.13
2022-12-23T10:27:37.093Z,25.05
2022-12-23T10:30:53.518Z,14.43
2022-12-23T10:33:21.932Z,23.73
2022-12-23T10:36:05.806Z,19.65
2022-12-23T10:38:43.377Z,16.45
2022-12-23T10:41:17.741Z,14.30
2022-12-23T10:44:14.673Z,21.63
2022-12-23T10:46:50.416Z,16.35
2022-12-23T10:49:51.525Z,13.63
2022-12-23T10:52:23.667Z,12.10
2022-12-23T10:54:52.203Z,15.40
2022-12-23T10:57:21.127Z,12.85
2022-12-23T10:59:49.641Z,20.38
2022-12-23T11:02:49.792Z,22.20
2022-12-23T11:05:27.176Z,20.42
2022-12-23T11:07:55.877Z,9.02
2022-12-23T11:10:32.785Z,12.80
2022-12-23T11:13:01.762Z,29.65
2022-12-23T11:15:35.796Z,18.65
2022-12-23T11:18:07.046Z,11.88
2022-12-23T11:20:37.001Z,11.93
2022-12-23T11:23:22.505Z,15.65
2022-12-23T11:26:00.806Z,13.68
2022-12-23T11:28:30.640Z,9.82
2022-12-23T11:31:08.056Z,16.30
2022-12-23T11:33:40.799Z,13.25
2022-12-23T11:36:12.626Z,19.65
2022-12-23T11:38:49.865Z,19.55
2022-12-23T11:41:21.591Z,14.50
2022-12-23T11:44:01.571Z,10.20
2022-12-23T11:46:32.689Z,16.88
2022-12-23T11:49:22.892Z,10.27
2022-12-23T11:52:12.116Z,15.85
2022-12-23T11:54:40.650Z,12.82
2022-12-23T11:57:19.087Z,13.50
2022-12-23T11:59:50.181Z,12.93
2022-12-23T12:02:26.693Z,12.25
2022-12-23T12:05:03.011Z,10.88
2022-12-23T12:07:32.849Z,9.95
2022-12-23T12:10:02.697Z,20.05
2022-12-23T12:12:32.751Z,12.45
2022-12-23T12:15:01.370Z,13.25
2022-12-23T12:17:49.638Z,9.10
2022-12-23T12:20:29.052Z,30.73
2022-12-23T12:23:09.166Z,11.13
2022-12-23T12:25:44.782Z,17.20
2022-12-23T12:28:26.221Z,15.30
2022-12-23T12:31:04.742Z,14.13
2022-12-23T12:33:44.877Z,14.73
2022-12-23T12:36:28.786Z,28.15
2022-12-23T12:38:59.865Z,20.13
2022-12-23T12:41:38.016Z,11.25
2022-12-23T12:44:36.568Z,17.08
2022-12-23T12:47:53.695Z,14.18
2022-12-23T12:50:30.362Z,8.63
2022-12-23T12:53:04.013Z,8.07
2022-12-23T12:55:37.862Z,7.20
2022-12-23T12:58:18.007Z,13.50
2022-12-23T13:00:54.200Z,10.63
2022-12-23T13:03:57.219Z,7.07
2022-12-23T13:06:57.754Z,9.32
2022-12-23T13:09:54.424Z,7.63
2022-12-23T13:12:54.132Z,8.95
2022-12-23T13:15:50.108Z,8.77
2022-12-23T13:18:30.632Z,10.32
2022-12-23T13:21:21.644Z,8.68
2022-12-23T13:24:07.764Z,10.40
2022-12-23T13:26:39.414Z,10.40
2022-12-23T13:29:42.960Z,6.07
2022-12-23T13:32:41.332Z,7.90
2022-12-23T13:35:18.959Z,6.72
2022-12-23T13:37:59.536Z,7.05
2022-12-23T13:40:39.644Z,9.02
2022-12-23T13:43:26.347Z,6.78
2022-12-23T13:45:58.513Z,6.88
2022-12-23T13:51:12.866Z,5.68
2022-12-23T13:54:09.839Z,6.38
2022-12-23T13:57:01.451Z,8.15
2022-12-23T13:59:42.141Z,5.40
2022-12-23T14:02:36.450Z,5.53
2022-12-23T14:05:10.454Z,5.95
2022-12-23T14:07:44.764Z,4.07
2022-12-23T14:10:21.845Z,6.22
2022-12-23T14:12:53.116Z,5.60
2022-12-23T14:15:59.584Z,4.20
2022-12-23T14:18:54.063Z,4.93
2022-12-23T14:21:32.045Z,4.78
2022-12-23T14:24:31.758Z,8.95
2022-12-23T14:27:25.148Z,5.55
2022-12-23T14:30:15.073Z,4.97
2022-12-23T14:33:01.932Z,5.93
2022-12-23T14:35:38.475Z,6.00
2022-12-23T14:38:30.195Z,11.10
2022-12-23T14:41:19.126Z,6.50
2022-12-23T14:43:52.703Z,17.15
2022-12-23T14:46:36.525Z,6.97
2022-12-23T14:49:44.560Z,12.10
2022-12-23T14:52:48.568Z,8.63
2022-12-23T14:55:40.683Z,6.20
2022-12-23T14:58:18.670Z,5.00
2022-12-23T15:01:02.328Z,12.38
2022-12-23T15:03:35.246Z,6.57
2022-12-23T15:06:07.185Z,6.70
2022-12-23T15:08:40.616Z,5.68
2022-12-23T15:11:20.732Z,6.97
2022-12-23T15:13:52.216Z,6.22
2022-12-23T15:16:31.727Z,6.28
2022-12-23T15:19:12.322Z,6.57
2022-12-23T15:21:40.752Z,8.20
2022-12-23T15:24:25.101Z,11.00
2022-12-23T15:27:17.846Z,8.93
2022-12-23T15:29:52.277Z,7.70
2022-12-23T15:32:23.420Z,8.27
2022-12-23T15:34:54.951Z,11.07
2022-12-23T15:37:29.367Z,11.52
2022-12-23T15:40:09.496Z,12.68
2022-12-23T15:42:47.381Z,11.13
2022-12-23T15:45:38.664Z,8.73
2022-12-23T15:48:25.197Z,23.73
2022-12-23T15:50:58.799Z,10.88
2022-12-23T15:53:38.625Z,9.95
2022-12-23T15:56:10.289Z,10.27
2022-12-23T15:58:41.999Z,11.20
2022-12-23T16:01:18.552Z,17.08
2022-12-23T16:03:58.937Z,10.18
2022-12-23T16:06:33.010Z,9.73
2022-12-23T16:09:03.014Z,7.53
2022-12-23T16:12:04.263Z,10.73
2022-12-23T16:14:36.515Z,6.60
2022-12-23T16:17:08.417Z,7.15
2022-12-23T16:19:48.128Z,8.10
2022-12-23T16:22:49.072Z,8.00
2022-12-23T16:25:31.154Z,7.72
2022-12-23T16:28:17.776Z,20.63
2022-12-23T16:30:49.498Z,11.65
2022-12-23T16:33:38.633Z,9.30
2022-12-23T16:36:21.553Z,12.40
2022-12-23T16:38:52.564Z,11.00
2022-12-23T16:41:21.022Z,9.73
2022-12-23T16:43:52.827Z,10.95
2022-12-23T16:49:16.018Z,15.65
2022-12-23T16:51:45.553Z,17.27
2022-12-23T16:54:16.509Z,14.60
2022-12-23T16:56:46.846Z,11.02
2022-12-23T16:59:16.310Z,20.23
2022-12-23T17:01:47.199Z,32.33
2022-12-23T17:04:16.071Z,20.98
2022-12-23T17:06:46.521Z,27.50
2022-12-23T17:09:15.120Z,23.02
2022-12-23T17:11:47.012Z,60.03
2022-12-23T17:14:21.685Z,24.98
2022-12-23T17:16:51.019Z,25.58
2022-12-23T17:19:27.718Z,21.25
2022-12-23T17:22:02.373Z,21.80
2022-12-23T17:24:31.226Z,17.33
2022-12-23T17:26:59.717Z,23.95
2022-12-23T17:29:28.750Z,20.27
2022-12-23T17:31:57.427Z,35.22
2022-12-23T17:34:26.197Z,31.80
2022-12-23T17:36:54.746Z,22.42
2022-12-23T17:39:24.230Z,31.23
2022-12-23T17:41:52.626Z,35.53
2022-12-23T17:44:21.274Z,35.20
2022-12-23T17:46:49.846Z,46.67
2022-12-23T17:49:18.296Z,41.95
2022-12-23T17:51:46.967Z,31.88
2022-12-23T17:54:24.615Z,46.58
2022-12-23T17:56:53.270Z,24.92
2022-12-23T17:59:21.975Z,39.72
2022-12-23T18:01:50.819Z,55.17
2022-12-23T18:04:19.443Z,37.47
2022-12-23T18:06:47.961Z,42.47
2022-12-23T18:09:18.776Z,40.38
2022-12-23T18:11:47.569Z,27.02
2022-12-23T18:14:24.486Z,24.08
2022-12-23T18:16:53.312Z,32.58
2022-12-23T18:19:22.167Z,22.23
2022-12-23T18:21:51.724Z,23.52
2022-12-23T18:24:21.370Z,46.40
2022-12-23T18:26:49.943Z,61.03
2022-12-23T18:29:18.626Z,19.35
2022-12-23T18:31:51.371Z,31.33
2022-12-23T18:34:21.240Z,31.48
2022-12-23T18:36:51.555Z,24.13
2022-12-23T18:39:21.046Z,51.45
2022-12-23T18:41:49.680Z,38.10
2022-12-23T18:44:20.644Z,40.88
2022-12-23T18:46:50.481Z,28.80
2022-12-23T18:49:19.041Z,47.17
2022-12-23T18:51:48.657Z,30.35
2022-12-23T18:54:17.388Z,35.13
2022-12-23T18:56:46.634Z,31.92
2022-12-23T18:59:29.202Z,36.30
2022-12-23T19:01:59.922Z,25.77
2022-12-23T19:04:28.938Z,42.80
2022-12-23T19:06:58.066Z,35.83
2022-12-23T19:09:26.877Z,25.70
2022-12-23T19:11:55.418Z,48.20
2022-12-23T19:14:23.974Z,25.67
2022-12-23T19:16:52.979Z,38.63
2022-12-23T19:19:21.939Z,23.80
2022-12-23T19:21:50.557Z,27.30
2022-12-23T19:24:19.054Z,24.15
2022-12-23T19:26:47.554Z,35.38
2022-12-23T19:29:17.037Z,27.48
2022-12-23T19:31:45.526Z,36.38
2022-12-23T19:34:15.623Z,27.45
2022-12-23T19:36:44.681Z,35.22
2022-12-23T19:39:16.173Z,29.70
2022-12-23T19:41:45.348Z,26.23
2022-12-23T19:44:14.519Z,34.05
2022-12-23T19:46:43.089Z,42.00
2022-12-23T19:49:17.559Z,29.10
2022-12-23T19:51:48.568Z,29.40
2022-12-23T19:54:18.410Z,26.08
2022-12-23T19:56:50.500Z,49.45
2022-12-23T20:01:47.860Z,36.58
2022-12-23T20:04:17.461Z,45.10
2022-12-23T20:06:46.007Z,36.72
2022-12-23T20:09:14.585Z,28.98
2022-12-23T20:11:45.724Z,32.72
2022-12-23T20:14:17.256Z,38.35
2022-12-23T20:16:45.759Z,49.17
2022-12-23T20:19:14.453Z,43.72
2022-12-23T20:21:42.925Z,37.25
2022-12-23T20:24:12.051Z,46.47
2022-12-23T20:26:42.987Z,31.30
2022-12-23T20:29:11.475Z,27.38
2022-12-23T20:31:40.056Z,41.28
2022-12-23T20:34:13.510Z,35.63
2022-12-23T20:36:42.164Z,39.05
2022-12-23T20:39:10.659Z,44.25
2022-12-23T20:41:39.082Z,40.22
2022-12-23T20:44:33.711Z,29.42
2022-12-23T20:46:55.951Z,42.17
2022-12-23T20:49:24.465Z,31.15
2022-12-23T20:51:52.923Z,25.45
2022-12-23T20:54:23.823Z,39.80
2022-12-23T20:56:56.627Z,29.10
2022-12-23T20:59:25.302Z,39.72
2022-12-23T21:01:53.878Z,35.22
2022-12-23T21:04:22.633Z,21.05
2022-12-23T21:06:51.485Z,33.30
2022-12-23T21:09:20.331Z,31.35
2022-12-23T21:11:48.900Z,28.40
2022-12-23T21:14:17.363Z,29.63
2022-12-23T21:16:45.923Z,21.23
2022-12-23T21:19:20.457Z,29.65
2022-12-23T21:21:50.281Z,17.15
2022-12-23T21:24:19.788Z,23.48
2022-12-23T21:26:56.533Z,20.55
2022-12-23T21:29:26.564Z,33.80
2022-12-23T21:31:55.495Z,31.50
2022-12-23T21:34:24.267Z,36.80
2022-12-23T21:36:52.858Z,38.20
2022-12-23T21:39:21.421Z,49.33
2022-12-23T21:41:51.324Z,15.77
2022-12-23T21:44:20.170Z,31.42
2022-12-23T21:46:50.351Z,31.17
2022-12-23T21:49:20.901Z,40.63
2022-12-23T21:51:49.515Z,17.15
2022-12-23T21:54:17.854Z,32.33
2022-12-23T21:56:46.264Z,30.77
2022-12-23T21:59:14.827Z,21.65
2022-12-23T22:01:43.892Z,40.17
2022-12-23T22:04:12.686Z,28.65
2022-12-23T22:06:45.725Z,24.23
2022-12-23T22:09:17.343Z,33.60
2022-12-23T22:11:46.779Z,32.70
2022-12-23T22:14:17.282Z,25.65
2022-12-23T22:16:45.709Z,17.52
2022-12-23T22:19:14.638Z,28.15
2022-12-23T22:21:43.198Z,25.58
2022-12-23T22:24:11.751Z,29.23
2022-12-23T22:26:41.014Z,20.17
2022-12-23T22:29:10.623Z,23.60
2022-12-23T22:31:45.286Z,37.05
2022-12-23T22:34:17.323Z,20.52
2022-12-23T22:36:45.859Z,23.83
2022-12-23T22:39:20.627Z,36.22
2022-12-23T22:41:51.254Z,37.90
2022-12-23T22:44:20.594Z,38.67
2022-12-23T22:46:49.520Z,30.25
2022-12-23T22:49:18.119Z,28.65
2022-12-23T22:51:46.622Z,27.25
2022-12-23T22:54:15.249Z,30.60
2022-12-23T22:56:45.718Z,32.65
2022-12-23T22:59:23.507Z,38.13
2022-12-23T23:01:52.997Z,17.38
2022-12-23T23:04:21.578Z,16.70
2022-12-23T23:06:50.141Z,62.38
2022-12-23T23:09:20.024Z,33.95
2022-12-23T23:11:49.681Z,43.65
2022-12-23T23:14:18.663Z,35.95
2022-12-23T23:16:47.391Z,26.35
2022-12-23T23:19:16.465Z,27.10
2022-12-23T23:21:44.935Z,21.63
2022-12-23T23:24:13.325Z,54.83
2022-12-23T23:26:41.714Z,25.77
2022-12-23T23:29:10.207Z,31.13
2022-12-23T23:31:42.318Z,26.67
2022-12-23T23:34:12.188Z,43.33
2022-12-23T23:36:40.783Z,42.20
2022-12-23T23:39:12.302Z,29.13
2022-12-23T23:41:41.272Z,52.17
2022-12-23T23:44:11.044Z,40.28
2022-12-23T23:46:40.085Z,30.20
2022-12-23T23:49:08.714Z,31.70
2022-12-23T23:51:37.354Z,16.92
2022-12-23T23:54:06.409Z,52.85
2022-12-23T23:56:38.654Z,39.20
2022-12-23T23:59:09.354Z,37.75
